createdAt,value
2022-09-22T00:01:14.874Z,78.04
2022-09-22T00:04:19.906Z,79.01
2022-09-22T00:06:50.047Z,78.57
2022-09-22T00:09:47.469Z,79.71
2022-09-22T00:12:29.994Z,79.91
2022-09-22T00:18:00.965Z,80.81
2022-09-22T00:20:48.426Z,80.91
2022-09-22T00:23:58.507Z,81.46
2022-09-22T00:26:52.879Z,81.46
2022-09-22T00:29:26.944Z,81.98
2022-09-22T00:31:58.494Z,82.31
2022-09-22T00:34:28.878Z,81.67
2022-09-22T00:37:31.836Z,81.60
2022-09-22T00:40:11.528Z,82.17
2022-09-22T00:42:51.354Z,82.06
2022-09-22T00:45:48.740Z,82.00
2022-09-22T00:48:49.884Z,83.91
2022-09-22T00:51:28.304Z,83.05
2022-09-22T00:54:28.287Z,83.35
2022-09-22T00:57:04.810Z,83.12
2022-09-22T00:59:51.634Z,83.04
2022-09-22T01:02:33.478Z,84.42
2022-09-22T01:05:18.381Z,83.38
2022-09-22T01:08:06.676Z,83.87
2022-09-22T01:11:12.706Z,83.61
2022-09-22T01:14:01.897Z,84.04
2022-09-22T01:19:57.028Z,84.05
2022-09-22T01:26:13.967Z,85.67
2022-09-22T01:29:15.877Z,86.39
2022-09-22T01:32:09.078Z,86.74
2022-09-22T01:34:50.047Z,87.00
2022-09-22T01:37:48.295Z,85.98
2022-09-22T01:41:07.167Z,86.91
2022-09-22T01:44:02.051Z,87.06
2022-09-22T01:47:08.035Z,86.12
2022-09-22T01:50:06.580Z,85.95
2022-09-22T01:52:40.960Z,86.08
2022-09-22T01:55:26.510Z,85.76
2022-09-22T01:58:19.911Z,85.70
2022-09-22T02:01:01.441Z,85.68
2022-09-22T02:03:43.821Z,85.09
2022-09-22T02:06:43.352Z,86.10
2022-09-22T02:09:32.109Z,85.98
2022-09-22T02:12:03.356Z,86.18
2022-09-22T02:15:06.426Z,86.13
2022-09-22T02:17:59.063Z,86.58
2022-09-22T02:20:57.706Z,87.20
2022-09-22T02:23:51.234Z,87.16
2022-09-22T02:26:32.975Z,86.90
2022-09-22T02:29:38.228Z,87.29
2022-09-22T02:32:29.044Z,87.59
2022-09-22T02:35:18.646Z,87.94
2022-09-22T02:38:34.608Z,87.91
2022-09-22T02:41:33.618Z,88.39
2022-09-22T02:44:45.865Z,88.41
2022-09-22T02:47:39.438Z,88.96
2022-09-22T02:50:41.951Z,89.31
2022-09-22T02:53:29.027Z,89.42
2022-09-22T02:56:24.120Z,89.78
2022-09-22T02:59:25.385Z,88.84
2022-09-22T03:02:05.885Z,89.38
2022-09-22T03:04:39.965Z,89.24
2022-09-22T03:07:23.504Z,89.17
2022-09-22T03:09:55.229Z,89.11
2022-09-22T03:13:08.959Z,88.52
2022-09-22T03:15:46.675Z,89.29
2022-09-22T03:18:34.665Z,89.70
2022-09-22T03:21:16.391Z,89.99
2022-09-22T03:24:05.926Z,90.51
2022-09-22T03:26:44.723Z,90.56
2022-09-22T03:29:38.971Z,90.06
2022-09-22T03:32:17.903Z,89.94
2022-09-22T03:35:11.644Z,90.45
2022-09-22T03:38:11.949Z,90.50
2022-09-22T03:41:10.015Z,90.60
2022-09-22T03:44:12.453Z,90.41
2022-09-22T03:46:55.554Z,90.69
2022-09-22T03:49:37.315Z,90.31
2022-09-22T03:52:10.299Z,89.81
2022-09-22T03:54:46.099Z,90.03
2022-09-22T03:57:39.507Z,91.05
2022-09-22T04:00:20.487Z,91.59
2022-09-22T04:03:10.873Z,92.46
2022-09-22T04:06:19.999Z,91.00
2022-09-22T04:08:54.061Z,90.93
2022-09-22T04:11:43.267Z,91.05
2022-09-22T04:14:36.647Z,91.24
2022-09-22T04:17:10.300Z,90.82
2022-09-22T04:20:07.132Z,90.47
2022-09-22T04:23:08.763Z,90.56
2022-09-22T04:25:42.657Z,90.82
2022-09-22T04:28:24.843Z,90.62
2022-09-22T04:31:20.179Z,90.63
2022-09-22T04:34:04.282Z,89.99
2022-09-22T04:36:50.776Z,89.88
2022-09-22T04:39:36.059Z,90.18
2022-09-22T04:42:10.748Z,89.77
2022-09-22T04:44:51.276Z,90.72
2022-09-22T04:47:21.927Z,90.57
2022-09-22T04:50:07.493Z,90.50
2022-09-22T04:52:41.164Z,90.50
2022-09-22T04:55:32.970Z,90.53
2022-09-22T04:58:14.147Z,91.43
2022-09-22T05:03:21.351Z,91.81
2022-09-22T05:05:54.591Z,92.75
2022-09-22T05:08:30.534Z,92.88
2022-09-22T05:11:25.484Z,92.67
2022-09-22T05:14:08.402Z,92.69
2022-09-22T05:16:36.630Z,93.10
2022-09-22T05:21:57.230Z,93.69
2022-09-22T05:27:48.925Z,93.98
2022-09-22T05:34:08.453Z,94.16
2022-09-22T05:36:50.352Z,94.05
2022-09-22T05:42:05.397Z,94.06
2022-09-22T05:44:49.064Z,93.22
2022-09-22T05:47:22.772Z,93.30
2022-09-22T05:50:10.447Z,93.20
2022-09-22T05:53:03.503Z,93.35
2022-09-22T05:55:37.025Z,93.05
2022-09-22T05:58:14.449Z,94.28
2022-09-22T06:00:49.672Z,93.71
2022-09-22T06:03:20.943Z,93.30
2022-09-22T06:06:21.085Z,93.79
2022-09-22T06:09:28.717Z,93.77
2022-09-22T06:12:09.452Z,94.65
2022-09-22T06:14:47.799Z,93.99
2022-09-22T06:18:02.031Z,93.34
2022-09-22T06:20:59.579Z,92.94
2022-09-22T06:23:43.144Z,93.07
2022-09-22T06:26:28.159Z,94.20
2022-09-22T06:29:13.556Z,92.71
2022-09-22T06:32:28.593Z,93.54
2022-09-22T06:35:26.895Z,93.53
2022-09-22T06:38:09.000Z,93.54
2022-09-22T06:40:52.564Z,92.55
2022-09-22T06:43:25.904Z,93.30
2022-09-22T06:46:31.242Z,92.70
2022-09-22T06:49:10.296Z,92.64
2022-09-22T06:52:06.225Z,92.74
2022-09-22T06:54:45.866Z,93.29
2022-09-22T06:57:35.202Z,93.02
2022-09-22T07:00:25.548Z,92.24
2022-09-22T07:03:27.974Z,91.54
2022-09-22T07:06:23.606Z,90.44
2022-09-22T07:09:20.667Z,90.48
2022-09-22T07:12:07.497Z,90.58
2022-09-22T07:14:50.538Z,89.38
2022-09-22T07:17:30.911Z,89.43
2022-09-22T07:20:23.028Z,89.70
2022-09-22T07:23:01.641Z,89.35
2022-09-22T07:25:41.534Z,87.92
2022-09-22T07:28:36.023Z,87.88
2022-09-22T07:31:14.481Z,89.14
2022-09-22T07:37:13.693Z,86.84
2022-09-22T07:43:09.936Z,85.83
2022-09-22T07:45:58.333Z,86.03
2022-09-22T07:48:51.005Z,86.86
2022-09-22T07:51:31.111Z,86.56
2022-09-22T07:54:34.525Z,86.45
2022-09-22T07:57:27.210Z,85.00
2022-09-22T08:00:03.364Z,85.00
2022-09-22T08:02:38.812Z,83.19
2022-09-22T08:05:35.063Z,80.75
2022-09-22T08:08:35.858Z,77.56
2022-09-22T08:11:14.636Z,77.56
2022-09-22T08:14:12.399Z,78.07
2022-09-22T08:17:16.543Z,75.55
2022-09-22T08:20:15.043Z,77.37
2022-09-22T08:23:06.796Z,74.95
2022-09-22T08:26:00.040Z,74.09
2022-09-22T08:29:01.285Z,71.81
2022-09-22T08:32:00.177Z,74.09
2022-09-22T08:35:04.948Z,72.98
2022-09-22T08:37:36.941Z,72.98
2022-09-22T08:40:22.395Z,70.83
2022-09-22T08:42:53.962Z,68.85
2022-09-22T08:45:47.307Z,69.17
2022-09-22T08:49:00.429Z,68.49
2022-09-22T08:51:56.523Z,67.50
2022-09-22T08:54:36.863Z,68.31
2022-09-22T08:57:35.489Z,65.49
2022-09-22T09:00:20.887Z,66.47
2022-09-22T09:03:18.261Z,66.52
2022-09-22T09:06:05.282Z,65.75
2022-09-22T09:08:55.176Z,65.19
2022-09-22T09:11:32.347Z,66.15
2022-09-22T09:15:04.826Z,65.50
2022-09-22T09:18:03.015Z,62.62
2022-09-22T09:20:45.500Z,64.04
2022-09-22T09:27:07.223Z,61.22
2022-09-22T09:30:05.776Z,61.58
2022-09-22T09:32:58.420Z,59.90
2022-09-22T09:35:47.137Z,61.42
2022-09-22T09:38:36.683Z,61.09
2022-09-22T09:41:17.229Z,59.16
2022-09-22T09:44:00.120Z,60.27
2022-09-22T09:46:45.004Z,58.96
2022-09-22T09:49:33.498Z,56.62
2022-09-22T09:52:24.320Z,57.20
2022-09-22T09:55:03.185Z,55.76
2022-09-22T09:58:00.799Z,56.21
2022-09-22T10:01:12.420Z,56.29
2022-09-22T10:03:56.035Z,56.56
2022-09-22T10:06:28.723Z,51.65
2022-09-22T10:09:22.210Z,54.54
2022-09-22T10:12:10.053Z,53.35
2022-09-22T10:14:54.682Z,51.34
2022-09-22T10:18:00.660Z,55.14
2022-09-22T10:23:22.414Z,54.24
2022-09-22T10:25:53.633Z,54.04
2022-09-22T10:28:41.407Z,55.50
2022-09-22T10:31:39.636Z,54.72
2022-09-22T10:34:29.651Z,53.51
2022-09-22T10:37:23.033Z,53.69
2022-09-22T10:40:19.612Z,53.47
2022-09-22T10:43:12.941Z,52.03
2022-09-22T10:45:52.105Z,53.45
2022-09-22T10:48:40.136Z,53.98
2022-09-22T10:51:31.408Z,52.66
2022-09-22T10:54:02.603Z,52.87
2022-09-22T10:56:48.072Z,53.06
2022-09-22T10:59:58.962Z,50.92
2022-09-22T11:02:47.736Z,51.10
2022-09-22T11:06:03.832Z,51.70
2022-09-22T11:09:16.257Z,49.01
2022-09-22T11:12:35.844Z,49.13
2022-09-22T11:15:27.413Z,48.54
2022-09-22T11:18:50.644Z,49.29
2022-09-22T11:21:51.218Z,48.38
2022-09-22T11:24:47.446Z,49.19
2022-09-22T11:27:43.499Z,49.56
2022-09-22T11:30:42.130Z,47.06
2022-09-22T11:33:35.541Z,47.95
2022-09-22T11:36:22.626Z,46.92
2022-09-22T11:39:21.152Z,47.19
2022-09-22T11:42:21.761Z,48.14
2022-09-22T11:45:08.823Z,47.62
2022-09-22T11:48:10.483Z,48.65
2022-09-22T11:50:56.986Z,48.09
2022-09-22T11:53:59.758Z,48.61
2022-09-22T11:56:41.412Z,49.62
2022-09-22T11:59:46.359Z,49.85
2022-09-22T12:02:39.847Z,51.08
2022-09-22T12:05:29.884Z,48.52
2022-09-22T12:08:10.416Z,47.69
2022-09-22T12:11:09.860Z,48.05
2022-09-22T12:14:12.309Z,48.37
2022-09-22T12:17:24.666Z,49.05
2022-09-22T12:20:14.100Z,48.22
2022-09-22T12:23:00.511Z,48.42
2022-09-22T12:26:13.298Z,47.37
2022-09-22T12:28:47.495Z,45.55
2022-09-22T12:31:40.070Z,47.49
2022-09-22T12:34:38.644Z,46.76
2022-09-22T12:37:39.835Z,44.68
2022-09-22T12:40:48.611Z,44.84
2022-09-22T12:43:44.846Z,43.97
2022-09-22T12:46:33.382Z,40.80
2022-09-22T12:49:22.981Z,42.53
2022-09-22T12:52:07.602Z,42.73
2022-09-22T12:54:56.731Z,41.61
2022-09-22T12:57:45.294Z,41.29
2022-09-22T13:00:44.413Z,40.35
2022-09-22T13:03:53.631Z,41.94
2022-09-22T13:07:06.709Z,41.15
2022-09-22T13:09:59.877Z,39.68
2022-09-22T13:12:30.796Z,40.05
2022-09-22T13:15:49.931Z,40.20
2022-09-22T13:18:39.615Z,41.69
2022-09-22T13:21:42.744Z,40.02
2022-09-22T13:24:47.432Z,39.82
2022-09-22T13:27:38.202Z,39.46
2022-09-22T13:30:27.278Z,39.10
2022-09-22T13:33:05.868Z,39.92
2022-09-22T13:35:49.201Z,40.76
2022-09-22T13:38:20.525Z,40.63
2022-09-22T13:41:09.029Z,41.67
2022-09-22T13:43:49.707Z,41.67
2022-09-22T13:46:28.075Z,38.89
2022-09-22T13:49:12.171Z,38.58
2022-09-22T13:51:49.915Z,40.18
2022-09-22T13:54:58.001Z,41.58
2022-09-22T14:17:19.229Z,37.65
2022-09-22T14:19:54.862Z,38.41
2022-09-22T14:22:54.956Z,37.82
2022-09-22T14:25:33.936Z,37.17
2022-09-22T14:28:07.737Z,37.82
2022-09-22T14:31:03.823Z,37.63
2022-09-22T14:33:47.107Z,37.87
2022-09-22T14:36:47.521Z,39.79
2022-09-22T14:39:35.449Z,40.86
2022-09-22T14:46:11.364Z,38.41
2022-09-22T14:48:54.819Z,41.60
2022-09-22T14:54:31.614Z,40.60
2022-09-22T14:57:08.334Z,41.97
2022-09-22T15:00:20.242Z,42.11
2022-09-22T15:03:16.660Z,41.99
2022-09-22T15:06:14.693Z,42.97
2022-09-22T15:08:58.658Z,43.12
2022-09-22T15:12:06.313Z,44.26
2022-09-22T15:15:02.891Z,45.99
2022-09-22T15:18:17.013Z,47.73
2022-09-22T15:21:36.125Z,44.54
2022-09-22T15:24:18.310Z,44.81
2022-09-22T15:27:14.760Z,46.07
2022-09-22T15:29:47.386Z,48.62
2022-09-22T15:32:55.805Z,47.75
2022-09-22T15:35:42.920Z,49.30
2022-09-22T15:38:22.254Z,46.73
2022-09-22T15:41:00.756Z,46.96
2022-09-22T15:43:46.872Z,48.12
2022-09-22T15:46:35.103Z,47.22
2022-09-22T15:49:22.153Z,49.03
2022-09-22T15:52:17.212Z,50.13
2022-09-22T15:55:10.414Z,47.34
2022-09-22T15:57:48.217Z,46.63
2022-09-22T16:00:23.791Z,50.11
2022-09-22T16:02:51.588Z,52.50
2022-09-22T16:17:39.263Z,51.98
2022-09-22T16:20:20.723Z,54.62
2022-09-22T16:23:03.709Z,52.73
2022-09-22T16:25:53.164Z,51.88
2022-09-22T16:28:35.111Z,51.88
2022-09-22T16:31:08.308Z,52.78
2022-09-22T16:33:50.408Z,54.13
2022-09-22T16:36:28.758Z,55.92
2022-09-22T16:39:03.174Z,56.17
2022-09-22T16:42:09.825Z,55.71
2022-09-22T16:45:08.106Z,57.56
2022-09-22T16:48:19.317Z,57.42
2022-09-22T16:50:54.832Z,59.09
2022-09-22T16:53:42.797Z,57.62
2022-09-22T16:56:14.328Z,57.94
2022-09-22T16:59:06.471Z,56.61
2022-09-22T17:01:53.711Z,58.14
2022-09-22T17:04:29.234Z,59.03
2022-09-22T17:07:15.481Z,58.86
2022-09-22T17:10:08.444Z,59.92
2022-09-22T17:12:44.364Z,60.13
2022-09-22T17:15:39.194Z,59.36
2022-09-22T17:18:40.929Z,58.10
2022-09-22T17:21:23.037Z,56.23
2022-09-22T17:24:18.169Z,58.72
2022-09-22T17:27:16.033Z,58.73
2022-09-22T17:30:09.292Z,58.48
2022-09-22T17:33:18.062Z,56.85
2022-09-22T17:36:04.326Z,55.38
2022-09-22T17:38:55.482Z,60.61
2022-09-22T17:41:50.914Z,59.62
2022-09-22T17:45:10.965Z,59.62
2022-09-22T17:48:11.150Z,60.92
2022-09-22T17:51:44.126Z,61.08
2022-09-22T17:54:52.758Z,62.11
2022-09-22T17:57:53.724Z,61.72
2022-09-22T18:00:27.874Z,62.73
2022-09-22T18:03:03.428Z,62.70
2022-09-22T18:05:39.921Z,64.37
2022-09-22T18:08:50.937Z,64.19
2022-09-22T18:11:28.798Z,65.96
2022-09-22T18:14:02.549Z,65.90
2022-09-22T18:16:37.652Z,66.10
2022-09-22T18:19:30.929Z,66.00
2022-09-22T18:22:18.473Z,64.99
2022-09-22T18:25:06.975Z,67.32
2022-09-22T18:28:10.374Z,66.85
2022-09-22T18:31:16.792Z,65.74
2022-09-22T18:34:18.862Z,65.74
2022-09-22T18:37:02.061Z,65.75
2022-09-22T18:40:01.648Z,67.60
2022-09-22T18:42:48.749Z,68.67
2022-09-22T18:45:22.812Z,67.61
2022-09-22T18:48:08.639Z,68.00
2022-09-22T18:51:22.266Z,66.59
2022-09-22T18:54:09.996Z,68.01
2022-09-22T18:57:08.120Z,68.01
2022-09-22T18:59:51.030Z,70.01
2022-09-22T19:02:24.264Z,69.17
2022-09-22T19:05:01.946Z,70.30
2022-09-22T19:07:48.184Z,69.62
2022-09-22T19:10:34.370Z,70.67
2022-09-22T19:13:41.324Z,69.04
2022-09-22T19:16:26.182Z,69.04
2022-09-22T19:19:01.069Z,67.96
2022-09-22T19:21:51.385Z,67.70
2022-09-22T19:24:39.656Z,69.96
2022-09-22T19:27:32.090Z,69.95
2022-09-22T19:30:07.614Z,71.02
2022-09-22T19:32:44.449Z,71.96
2022-09-22T19:35:48.930Z,72.99
2022-09-22T19:38:30.371Z,72.99
2022-09-22T19:41:05.645Z,72.55
2022-09-22T19:43:42.291Z,72.41
2022-09-22T19:46:50.126Z,72.98
2022-09-22T19:49:18.719Z,73.48
2022-09-22T19:52:03.649Z,72.95
2022-09-22T19:54:35.843Z,72.95
2022-09-22T19:57:11.484Z,72.07
2022-09-22T19:59:57.452Z,73.62
2022-09-22T20:02:31.076Z,73.68
2022-09-22T20:05:32.491Z,74.01
2022-09-22T20:08:17.859Z,73.22
2022-09-22T20:11:31.341Z,73.17
2022-09-22T20:14:23.932Z,74.03
2022-09-22T20:17:21.890Z,75.19
2022-09-22T20:19:56.499Z,75.23
2022-09-22T20:22:31.078Z,75.51
2022-09-22T20:25:37.603Z,75.71
2022-09-22T20:28:16.156Z,76.24
2022-09-22T20:31:09.224Z,75.94
2022-09-22T20:33:45.443Z,75.26
2022-09-22T20:36:31.715Z,76.29
2022-09-22T20:39:02.084Z,76.26
2022-09-22T20:41:47.496Z,76.40
2022-09-22T20:44:24.193Z,75.83
2022-09-22T20:47:01.722Z,75.76
2022-09-22T20:50:00.434Z,75.92
2022-09-22T20:53:03.721Z,75.99
2022-09-22T20:55:40.424Z,76.41
2022-09-22T20:58:17.705Z,77.65
2022-09-22T21:01:12.601Z,78.64
2022-09-22T21:03:45.973Z,78.82
2022-09-22T21:06:39.197Z,79.10
2022-09-22T21:09:25.422Z,78.96
2022-09-22T21:12:15.668Z,79.35
2022-09-22T21:15:28.627Z,79.67
2022-09-22T21:18:14.338Z,78.68
2022-09-22T21:21:00.553Z,79.56
2022-09-22T21:24:03.135Z,79.68
2022-09-22T21:27:25.455Z,78.39
2022-09-22T21:30:08.504Z,79.84
2022-09-22T21:32:42.175Z,80.03
2022-09-22T21:35:43.898Z,78.93
2022-09-22T21:38:38.226Z,80.04
2022-09-22T21:41:12.198Z,79.55
2022-09-22T21:43:48.009Z,79.44
2022-09-22T21:46:35.991Z,80.49
2022-09-22T21:49:11.967Z,79.39
2022-09-22T21:51:53.754Z,79.74
2022-09-22T21:54:55.922Z,80.10
2022-09-22T21:57:57.490Z,80.69
2022-09-22T22:00:59.896Z,80.69
2022-09-22T22:03:43.464Z,81.52
2022-09-22T22:06:41.494Z,81.91
2022-09-22T22:09:30.919Z,82.04
2022-09-22T22:12:25.049Z,82.87
2022-09-22T22:15:16.982Z,82.90
2022-09-22T22:18:04.885Z,82.64
2022-09-22T22:20:52.147Z,82.34
2022-09-22T22:23:25.122Z,83.01
2022-09-22T22:26:03.805Z,82.59
2022-09-22T22:28:53.830Z,82.58
2022-09-22T22:32:02.351Z,82.58
2022-09-22T22:34:34.053Z,83.60
2022-09-22T22:37:08.253Z,84.20
2022-09-22T22:40:02.415Z,84.27
2022-09-22T22:42:50.454Z,85.08
2022-09-22T22:45:35.597Z,86.24
2022-09-22T22:48:09.736Z,85.73
2022-09-22T22:50:45.975Z,85.34
2022-09-22T22:53:19.130Z,85.94
2022-09-22T22:56:05.910Z,85.67
2022-09-22T22:58:44.261Z,85.83
2022-09-22T23:04:40.632Z,86.06
2022-09-22T23:07:13.561Z,85.39
2022-09-22T23:10:15.531Z,85.92
2022-09-22T23:12:57.418Z,85.70
2022-09-22T23:16:00.585Z,85.80
2022-09-22T23:18:50.194Z,86.20
2022-09-22T23:21:35.599Z,86.56
2022-09-22T23:24:28.823Z,86.86
2022-09-22T23:27:29.352Z,86.73
2022-09-22T23:30:23.073Z,86.46
2022-09-22T23:33:08.237Z,87.26
2022-09-22T23:35:45.150Z,87.19
2022-09-22T23:38:42.309Z,87.46
2022-09-22T23:41:25.058Z,87.42
2022-09-22T23:44:13.520Z,88.21
2022-09-22T23:47:06.862Z,88.65
2022-09-22T23:49:43.867Z,87.99
2022-09-22T23:52:29.573Z,89.11
2022-09-22T23:55:09.847Z,89.22
2022-09-22T23:58:03.650Z,89.33
